Аэропорт: Алыкель. Норильск

ICAO: UOOO

METAR:
2020-08-12 06:00:00
UOOO 120600Z 04008MPS CAVOK 20/13 Q1004 R01/CLRD60 NOSIG RMK QFE738/0984
METAR:
2020-08-12 05:00:00
TAF UOOO 120500Z 1206/1306 09007G13MPS 9999 BKN030CB TEMPO 1206/1215 05007G13MPS 5000 -TSRA BR BKN016CB TEMPO 1215/1303 14007G13MPS 3100 BR SCT011CB